Time;durP1;ratioP1;P1;durP2;ratioP2;P2;SDS_P1;SDS_P2;PMS_P1;PMS_P2;Temp;Humidity;BMP_temperature;BMP_pressure;BME280_temperature;BME280_humidity;BME280_pressure;Samples;Min_cycle;Max_cycle;Signal;HPM_P1;HPM_P2
2022/05/13 00:00:27;;;;;;;7.28;1.50;;;8.70;99.90;;;;;;5031304;28;20049;-36
2022/05/13 00:02:52;;;;;;;3.38;1.23;;;8.60;99.90;;;;;;5027583;28;20043;-37
2022/05/13 00:05:18;;;;;;;3.70;1.63;;;8.70;99.90;;;;;;5031187;28;20378;-37
2022/05/13 00:07:44;;;;;;;4.45;1.75;;;9.20;99.90;;;;;;5031079;28;20514;-37
2022/05/13 00:10:10;;;;;;;7.95;1.48;;;8.80;99.90;;;;;;5030436;28;20408;-48
2022/05/13 00:12:40;;;;;;;3.97;1.67;;;8.90;99.90;;;;;;5030767;28;20053;-48
2022/05/13 00:15:11;;;;;;;4.22;1.40;;;8.90;99.90;;;;;;5030380;28;20053;-47
2022/05/13 00:17:36;;;;;;;4.65;1.60;;;9.00;99.90;;;;;;5030555;28;20560;-47
2022/05/13 00:20:04;;;;;;;4.18;1.38;;;9.00;99.90;;;;;;5030504;28;20037;-48
2022/05/13 00:22:29;;;;;;;4.78;1.70;;;9.00;99.90;;;;;;5030701;28;20117;-47
2022/05/13 00:24:56;;;;;;;8.27;1.80;;;9.10;99.90;;;;;;5030389;28;20116;-48
2022/05/13 00:27:22;;;;;;;6.55;1.95;;;9.10;99.90;;;;;;5029115;28;20068;-49
2022/05/13 00:29:49;;;;;;;4.03;1.85;;;9.00;99.90;;;;;;5030238;28;20049;-47
2022/05/13 00:32:16;;;;;;;5.22;1.50;;;9.90;99.90;;;;;;5030170;28;20045;-47
2022/05/13 00:34:42;;;;;;;6.85;2.00;;;9.20;99.90;;;;;;5030236;28;20045;-46
2022/05/13 00:37:08;;;;;;;7.03;1.75;;;9.20;99.90;;;;;;5027458;28;20085;-47
2022/05/13 00:39:34;;;;;;;5.53;1.77;;;9.70;99.90;;;;;;5029915;28;20073;-46
2022/05/13 00:42:08;;;;;;;6.50;1.67;;;9.50;99.90;;;;;;5030236;28;20049;-47
2022/05/13 00:44:34;;;;;;;4.10;1.90;;;9.50;99.90;;;;;;5029964;28;20128;-48
2022/05/13 00:47:01;;;;;;;5.47;1.98;;;9.60;99.90;;;;;;5029972;28;20045;-47
2022/05/13 00:49:28;;;;;;;4.85;1.92;;;9.40;99.90;;;;;;5030376;28;20083;-47
2022/05/13 00:51:54;;;;;;;6.55;1.58;;;9.90;99.90;;;;;;5030306;28;20042;-46
2022/05/13 00:54:19;;;;;;;5.90;2.00;;;9.70;99.90;;;;;;5028752;28;20041;-48
2022/05/13 00:56:48;;;;;;;8.07;2.25;;;9.80;99.90;;;;;;5030365;28;20051;-47
2022/05/13 00:59:18;;;;;;;5.43;1.50;;;10.20;99.90;;;;;;5030092;28;20112;-50
2022/05/13 01:01:43;;;;;;;5.28;1.80;;;9.90;99.90;;;;;;5020245;28;20060;-47
2022/05/13 01:04:12;;;;;;;8.38;2.15;;;10.10;99.90;;;;;;4989471;28;20662;-46
2022/05/13 01:06:41;;;;;;;6.35;2.75;;;10.10;99.90;;;;;;4990529;28;20057;-46
2022/05/13 01:09:06;;;;;;;6.95;2.15;;;10.00;99.90;;;;;;4990329;28;20421;-47
2022/05/13 01:11:35;;;;;;;8.27;1.88;;;10.00;99.90;;;;;;4990558;28;20050;-46
2022/05/13 01:14:15;;;;;;;8.77;1.95;;;10.10;99.90;;;;;;4990550;28;20046;-47
2022/05/13 01:19:24;;;;;;;5.18;1.63;;;10.90;99.90;;;;;;4990412;28;20053;-46
2022/05/13 01:21:51;;;;;;;4.63;1.92;;;10.20;99.90;;;;;;4990622;28;20045;-46
2022/05/13 01:24:19;;;;;;;6.45;1.80;;;10.60;99.90;;;;;;4972975;28;20057;-48
2022/05/13 01:26:44;;;;;;;6.20;1.40;;;10.10;99.90;;;;;;4990567;28;20442;-46
2022/05/13 01:29:10;;;;;;;3.78;1.30;;;10.10;99.90;;;;;;4990108;28;20113;-48
2022/05/13 01:31:39;;;;;;;9.23;2.35;;;10.30;99.90;;;;;;4990496;28;20035;-48
2022/05/13 01:34:12;;;;;;;6.32;1.50;;;10.30;99.90;;;;;;4990012;28;20185;-48
2022/05/13 01:36:39;;;;;;;8.73;2.00;;;10.20;99.90;;;;;;4990733;28;20552;-48
2022/05/13 01:39:06;;;;;;;5.22;1.67;;;10.30;99.90;;;;;;5027699;28;20116;-46
2022/05/13 01:41:32;;;;;;;8.02;1.27;;;10.40;99.90;;;;;;5027935;28;20068;-47
2022/05/13 01:43:58;;;;;;;7.35;2.33;;;10.30;99.90;;;;;;5029128;28;20496;-48
2022/05/13 01:46:25;;;;;;;9.82;2.47;;;10.30;99.90;;;;;;5028848;28;20083;-46
2022/05/13 01:48:51;;;;;;;10.65;2.67;;;10.20;99.90;;;;;;5029160;28;20049;-46
2022/05/13 01:51:18;;;;;;;9.43;2.03;;;10.20;99.90;;;;;;5020979;28;20029;-48
2022/05/13 01:53:44;;;;;;;6.50;2.00;;;10.30;99.90;;;;;;5029179;28;20128;-46
2022/05/13 01:56:10;;;;;;;6.72;2.35;;;10.20;99.90;;;;;;5027112;28;20117;-47
2022/05/13 01:58:36;;;;;;;5.07;1.73;;;10.20;99.90;;;;;;5026963;28;20120;-46
2022/05/13 02:01:04;;;;;;;4.82;2.03;;;10.20;99.90;;;;;;5029009;28;20049;-49
2022/05/13 02:03:45;;;;;;;5.40;1.70;;;10.30;99.90;;;;;;4996908;28;20073;-48
2022/05/13 02:06:29;;;;;;;7.18;2.13;;;10.30;99.90;;;;;;4988006;28;20038;-47
2022/05/13 02:08:56;;;;;;;7.78;1.95;;;10.20;99.90;;;;;;4989665;28;20045;-47
2022/05/13 02:11:24;;;;;;;4.82;1.98;;;10.70;99.90;;;;;;4989905;28;20043;-48
2022/05/13 02:13:51;;;;;;;6.30;1.63;;;10.20;99.90;;;;;;4990117;28;20045;-47
2022/05/13 02:16:17;;;;;;;4.82;1.80;;;10.30;99.90;;;;;;4989855;28;20060;-46
2022/05/13 02:18:43;;;;;;;9.35;2.53;;;10.60;99.90;;;;;;4989771;28;20046;-46
2022/05/13 02:21:09;;;;;;;6.97;2.10;;;10.30;99.90;;;;;;4989755;28;20401;-47
2022/05/13 02:23:36;;;;;;;6.85;1.65;;;10.30;99.90;;;;;;4989555;28;20038;-47
2022/05/13 02:26:05;;;;;;;6.63;1.60;;;10.30;99.90;;;;;;4989663;28;20092;-46
2022/05/13 02:28:32;;;;;;;6.15;1.85;;;11.10;99.90;;;;;;4989540;28;20108;-47
2022/05/13 02:31:01;;;;;;;8.48;2.13;;;10.10;99.90;;;;;;4989850;28;20113;-46
2022/05/13 02:33:28;;;;;;;6.75;2.53;;;10.20;99.90;;;;;;4989395;28;20371;-47
2022/05/13 02:35:54;;;;;;;6.22;1.67;;;10.30;99.90;;;;;;4989437;28;20126;-49
2022/05/13 02:38:19;;;;;;;8.18;2.38;;;10.30;99.90;;;;;;5015915;28;20089;-47
2022/05/13 02:43:30;;;;;;;7.75;1.80;;;10.40;99.90;;;;;;5029049;28;20058;-47
2022/05/13 02:45:57;;;;;;;7.15;2.22;;;10.40;99.90;;;;;;5029025;28;20042;-47
2022/05/13 02:48:22;;;;;;;5.70;1.58;;;10.40;99.90;;;;;;5028782;28;20042;-48
2022/05/13 02:50:48;;;;;;;8.88;2.88;;;10.60;99.90;;;;;;5029011;28;20056;-46
2022/05/13 02:53:14;;;;;;;9.43;1.90;;;10.30;99.90;;;;;;5028922;28;20684;-47
2022/05/13 02:55:40;;;;;;;6.43;1.73;;;11.00;99.90;;;;;;5028723;28;20052;-47
2022/05/13 02:58:06;;;;;;;9.25;2.78;;;10.30;99.90;;;;;;5028739;28;20393;-47
2022/05/13 03:00:32;;;;;;;5.53;1.75;;;10.30;99.90;;;;;;5028335;28;20038;-47
2022/05/13 03:02:58;;;;;;;8.32;2.30;;;10.10;99.90;;;;;;5012980;28;20041;-46
2022/05/13 03:05:24;;;;;;;8.45;2.50;;;10.30;99.90;;;;;;4989012;28;20046;-47
2022/05/13 03:07:50;;;;;;;8.02;2.05;;;10.20;99.90;;;;;;4989400;28;20050;-47
2022/05/13 03:10:17;;;;;;;8.88;2.10;;;10.00;99.90;;;;;;4992703;28;20092;-48
2022/05/13 03:12:43;;;;;;;9.15;2.95;;;10.10;99.90;;;;;;4992981;28;20112;-45
2022/05/13 03:15:10;;;;;;;10.63;2.30;;;10.30;99.90;;;;;;4992909;28;20496;-46
2022/05/13 03:17:36;;;;;;;9.35;2.75;;;10.10;99.90;;;;;;4992538;28;20046;-47
2022/05/13 03:20:05;;;;;;;8.65;2.38;;;10.10;99.90;;;;;;4992929;28;20046;-46
2022/05/13 03:22:32;;;;;;;9.38;2.30;;;10.10;99.90;;;;;;4992428;28;20129;-47
2022/05/13 03:24:59;;;;;;;12.73;3.63;;;10.20;99.90;;;;;;4992672;28;20117;-46
2022/05/13 03:27:25;;;;;;;7.70;2.10;;;10.20;99.90;;;;;;4992378;28;20583;-47
2022/05/13 03:29:50;;;;;;;10.52;2.58;;;10.20;99.90;;;;;;4992578;28;20038;-47
2022/05/13 03:32:16;;;;;;;12.27;2.45;;;10.20;99.90;;;;;;4992611;28;20237;-47
2022/05/13 03:34:42;;;;;;;9.27;2.83;;;10.80;99.90;;;;;;4992522;28;20129;-46
2022/05/13 03:37:07;;;;;;;9.57;2.15;;;10.30;99.90;;;;;;4999658;28;20088;-47
2022/05/13 03:39:33;;;;;;;11.27;3.05;;;10.30;99.90;;;;;;5031450;28;20073;-47
2022/05/13 03:41:59;;;;;;;8.95;2.55;;;10.30;99.90;;;;;;5031812;28;20510;-46
2022/05/13 03:44:24;;;;;;;8.70;2.20;;;10.70;99.90;;;;;;5031442;28;20048;-46
2022/05/13 03:46:50;;;;;;;12.95;2.58;;;10.30;99.90;;;;;;5031662;28;20037;-47
2022/05/13 03:49:16;;;;;;;8.77;2.45;;;10.60;99.90;;;;;;5031457;28;20396;-46
2022/05/13 03:51:42;;;;;;;6.95;2.15;;;10.30;99.90;;;;;;5031120;28;20099;-47
2022/05/13 03:54:08;;;;;;;7.93;2.58;;;10.30;99.90;;;;;;5031429;28;20041;-47
2022/05/13 03:56:33;;;;;;;15.93;2.33;;;10.30;99.90;;;;;;5029765;28;20045;-47
2022/05/13 03:58:59;;;;;;;9.48;2.50;;;10.90;99.90;;;;;;5031446;28;20040;-46
2022/05/13 04:01:25;;;;;;;6.97;2.40;;;10.60;99.90;;;;;;5030974;28;20594;-47
2022/05/13 04:03:51;;;;;;;8.15;2.65;;;10.30;99.90;;;;;;5008981;28;20514;-47
2022/05/13 04:09:02;;;;;;;12.10;2.67;;;10.30;99.90;;;;;;4991917;28;20474;-46
2022/05/13 04:11:39;;;;;;;10.95;3.03;;;10.40;99.90;;;;;;4991393;28;20053;-46
2022/05/13 04:16:51;;;;;;;14.43;4.00;;;10.50;99.90;;;;;;4991488;28;20061;-47
2022/05/13 04:19:17;;;;;;;9.15;2.00;;;10.50;99.90;;;;;;4991440;28;20038;-46
2022/05/13 04:21:44;;;;;;;12.40;3.50;;;10.80;99.90;;;;;;4990705;28;20121;-46
2022/05/13 04:24:17;;;;;;;11.73;2.90;;;10.90;99.90;;;;;;4991354;28;20046;-47
2022/05/13 04:26:43;;;;;;;13.05;3.97;;;10.40;99.90;;;;;;4991309;28;20053;-46
2022/05/13 04:29:09;;;;;;;11.15;2.33;;;10.50;99.90;;;;;;4989850;28;20397;-46
2022/05/13 04:31:37;;;;;;;9.30;2.67;;;10.50;99.90;;;;;;4990994;28;20046;-47
2022/05/13 04:34:04;;;;;;;12.68;2.47;;;10.60;99.90;;;;;;4991173;28;20053;-47
2022/05/13 04:36:30;;;;;;;8.13;2.60;;;10.50;99.90;;;;;;4990773;28;20450;-46
2022/05/13 04:38:56;;;;;;;8.75;2.13;;;10.50;99.90;;;;;;5025546;28;20045;-46
2022/05/13 04:44:09;;;;;;;12.80;2.33;;;11.30;99.90;;;;;;5030049;28;20099;-46
2022/05/13 04:46:35;;;;;;;12.43;2.67;;;10.50;99.90;;;;;;5029991;28;20099;-46
2022/05/13 04:49:02;;;;;;;11.85;2.83;;;10.50;99.90;;;;;;5030342;28;20048;-47
2022/05/13 04:51:28;;;;;;;9.00;2.92;;;11.10;99.90;;;;;;5030040;28;20121;-46
2022/05/13 04:53:55;;;;;;;11.80;2.85;;;10.60;99.90;;;;;;5030178;28;20144;-46
2022/05/13 04:56:22;;;;;;;12.30;2.55;;;10.50;99.90;;;;;;5029954;28;20477;-47
2022/05/13 04:58:48;;;;;;;8.95;2.83;;;10.60;99.90;;;;;;5030036;28;20073;-47
2022/05/13 05:01:15;;;;;;;12.02;2.53;;;10.60;99.90;;;;;;5030360;28;20060;-47
2022/05/13 05:03:43;;;;;;;12.57;2.50;;;10.60;99.90;;;;;;5017713;28;20093;-46
2022/05/13 05:06:10;;;;;;;8.40;2.10;;;10.60;99.90;;;;;;4990622;28;20572;-47
2022/05/13 05:08:37;;;;;;;12.38;2.50;;;10.90;99.90;;;;;;4990632;28;20109;-46
2022/05/13 05:11:05;;;;;;;13.20;3.25;;;10.80;99.90;;;;;;4990543;28;20081;-47
2022/05/13 05:13:34;;;;;;;14.38;3.05;;;10.80;99.90;;;;;;4990684;28;20078;-46
2022/05/13 05:16:01;;;;;;;14.13;2.38;;;10.80;99.90;;;;;;4990541;28;20053;-47
2022/05/13 05:18:28;;;;;;;11.88;2.95;;;10.90;99.90;;;;;;4990551;28;20054;-47
2022/05/13 05:20:54;;;;;;;10.75;2.13;;;11.50;99.90;;;;;;4990521;28;20050;-46
2022/05/13 05:23:27;;;;;;;17.15;3.83;;;11.20;99.90;;;;;;4989329;28;20797;-48
2022/05/13 05:25:53;;;;;;;12.05;3.35;;;11.20;99.90;;;;;;4990386;28;20039;-49
2022/05/13 05:28:19;;;;;;;13.30;2.72;;;11.00;99.90;;;;;;4990165;28;20046;-47
2022/05/13 05:30:46;;;;;;;13.43;3.60;;;11.30;99.90;;;;;;5027396;28;20045;-47
2022/05/13 05:33:12;;;;;;;11.90;2.45;;;11.20;99.90;;;;;;5027736;28;20091;-47
2022/05/13 05:35:38;;;;;;;12.73;3.20;;;11.30;99.90;;;;;;5029267;28;20485;-46
2022/05/13 05:38:04;;;;;;;11.85;3.08;;;11.50;99.90;;;;;;5028999;28;20048;-46
2022/05/13 05:40:31;;;;;;;7.47;1.77;;;11.60;99.90;;;;;;5029005;28;20111;-48
2022/05/13 05:43:06;;;;;;;13.50;2.58;;;11.70;99.90;;;;;;5029119;28;20045;-47
2022/05/13 05:45:32;;;;;;;14.90;3.15;;;12.20;99.90;;;;;;5029531;28;20041;-47
2022/05/13 05:47:58;;;;;;;16.20;3.17;;;12.10;99.90;;;;;;5028859;28;20060;-47
2022/05/13 05:50:24;;;;;;;11.38;3.40;;;12.20;99.90;;;;;;5029204;28;20041;-47
2022/05/13 05:52:49;;;;;;;14.23;2.05;;;12.40;99.90;;;;;;5028918;28;20045;-47
2022/05/13 05:58:07;;;;;;;13.07;2.55;;;12.50;99.90;;;;;;5029028;28;20064;-46
2022/05/13 06:00:37;;;;;;;9.10;2.33;;;12.70;99.90;;;;;;5027955;28;20107;-46
2022/05/13 06:03:03;;;;;;;12.82;2.53;;;13.00;99.90;;;;;;5028972;28;20045;-48
2022/05/13 06:05:28;;;;;;;10.50;2.15;;;13.70;99.90;;;;;;5025445;28;20111;-47
2022/05/13 06:07:57;;;;;;;18.70;2.35;;;14.70;99.90;;;;;;5028821;28;20046;-47
2022/05/13 06:10:23;;;;;;;10.35;1.70;;;16.20;99.90;;;;;;5028754;28;20037;-48
2022/05/13 06:12:49;;;;;;;10.40;1.73;;;16.50;99.90;;;;;;5028715;28;20371;-48
2022/05/13 06:15:16;;;;;;;12.38;2.83;;;16.80;99.20;;;;;;5028825;28;20038;-47
2022/05/13 06:17:47;;;;;;;12.55;1.92;;;16.80;98.20;;;;;;5028602;28;20057;-47
2022/05/13 06:20:14;;;;;;;11.60;2.40;;;16.80;97.50;;;;;;5028876;28;20038;-47
2022/05/13 06:22:40;;;;;;;13.02;2.15;;;16.70;96.70;;;;;;5028421;28;20747;-47
2022/05/13 06:25:10;;;;;;;9.50;1.50;;;16.60;96.10;;;;;;5022189;28;20764;-46
2022/05/13 06:27:37;;;;;;;10.05;1.92;;;16.50;95.60;;;;;;5015710;28;20347;-47
2022/05/13 06:30:12;;;;;;;8.48;1.52;;;16.40;95.80;;;;;;5017774;28;20120;-46
2022/05/13 06:32:38;;;;;;;8.07;2.30;;;16.20;95.50;;;;;;5015843;28;20044;-47
2022/05/13 06:35:04;;;;;;;9.80;2.15;;;16.10;95.60;;;;;;5013867;28;20048;-48
2022/05/13 06:37:30;;;;;;;10.02;1.88;;;16.10;95.60;;;;;;5006867;28;20042;-47
2022/05/13 06:39:56;;;;;;;7.22;1.70;;;16.10;95.40;;;;;;4997039;28;20053;-47
2022/05/13 06:42:21;;;;;;;6.90;1.48;;;16.00;95.30;;;;;;4999378;28;20045;-48
2022/05/13 06:44:47;;;;;;;7.80;1.77;;;16.00;95.10;;;;;;5000688;28;20038;-48
2022/05/13 06:47:13;;;;;;;8.27;1.20;;;16.20;94.70;;;;;;5004027;28;20054;-47
2022/05/13 06:49:39;;;;;;;7.93;1.38;;;16.50;94.00;;;;;;5000219;28;20500;-50
2022/05/13 06:52:05;;;;;;;10.20;1.63;;;16.60;93.00;;;;;;5001314;28;20051;-48
2022/05/13 06:54:31;;;;;;;6.88;1.42;;;16.80;92.20;;;;;;5003160;28;20053;-47
2022/05/13 06:56:56;;;;;;;6.30;1.02;;;17.10;91.60;;;;;;5001462;28;20039;-47
2022/05/13 06:59:23;;;;;;;5.50;0.95;;;17.30;91.00;;;;;;5002013;28;20045;-48
2022/05/13 07:01:49;;;;;;;8.38;1.27;;;17.40;90.30;;;;;;5002983;28;20898;-48
2022/05/13 07:04:15;;;;;;;5.43;1.45;;;17.50;89.00;;;;;;5003130;28;20453;-47
2022/05/13 07:06:40;;;;;;;8.32;1.10;;;17.60;88.00;;;;;;5001171;28;20049;-48
2022/05/13 07:09:06;;;;;;;9.77;1.13;;;17.60;87.50;;;;;;5001694;28;20058;-49
2022/05/13 07:11:33;;;;;;;6.03;0.82;;;17.50;87.30;;;;;;5000069;28;20045;-50
2022/05/13 07:13:58;;;;;;;6.75;1.40;;;17.40;87.00;;;;;;5000689;28;20122;-48
2022/05/13 07:16:24;;;;;;;9.15;1.60;;;17.20;86.60;;;;;;4996391;28;20125;-49
2022/05/13 07:18:50;;;;;;;10.65;1.83;;;16.90;86.20;;;;;;4992119;28;20050;-51
2022/05/13 07:21:16;;;;;;;7.75;1.63;;;16.50;87.20;;;;;;4993917;28;20041;-51
2022/05/13 07:23:43;;;;;;;7.95;1.38;;;16.30;88.00;;;;;;4995064;28;20169;-51
2022/05/13 07:26:09;;;;;;;8.05;1.00;;;16.30;88.60;;;;;;4995666;28;20049;-48
2022/05/13 07:28:36;;;;;;;5.43;0.60;;;16.20;89.10;;;;;;4999964;28;20070;-49
2022/05/13 07:31:01;;;;;;;5.13;0.90;;;16.10;88.40;;;;;;4995446;28;20474;-48
2022/05/13 07:33:29;;;;;;;6.40;0.85;;;15.90;88.00;;;;;;5002648;28;20049;-49
2022/05/13 07:35:55;;;;;;;5.80;1.02;;;15.90;88.90;;;;;;5002354;28;20103;-50
2022/05/13 07:38:21;;;;;;;7.47;1.08;;;16.20;88.60;;;;;;5002008;28;20046;-49
2022/05/13 07:43:32;;;;;;;4.65;0.55;;;17.50;86.00;;;;;;5001926;28;20049;-49
2022/05/13 07:45:58;;;;;;;3.67;0.70;;;18.30;84.00;;;;;;4998222;28;20042;-50
2022/05/13 07:48:24;;;;;;;4.57;0.70;;;18.70;82.00;;;;;;4999650;28;20044;-48
2022/05/13 07:50:51;;;;;;;5.28;0.40;;;18.80;79.80;;;;;;5001437;28;20068;-49
2022/05/13 07:53:18;;;;;;;7.18;0.93;;;18.90;78.10;;;;;;4999711;28;20046;-50
2022/05/13 07:55:43;;;;;;;6.28;0.60;;;18.40;77.70;;;;;;5000469;28;20445;-50
2022/05/13 07:58:09;;;;;;;5.20;0.95;;;19.30;77.20;;;;;;5000843;28;20046;-49
2022/05/13 08:00:37;;;;;;;12.70;1.90;;;20.20;76.70;;;;;;5000298;28;20046;-48
2022/05/13 08:03:08;;;;;;;5.40;0.80;;;21.00;72.90;;;;;;5002223;28;20046;-51
2022/05/13 08:05:43;;;;;;;5.60;0.77;;;22.50;74.50;;;;;;5002056;28;20054;-49
2022/05/13 08:08:14;;;;;;;4.45;0.47;;;22.50;67.70;;;;;;5000188;28;20097;-49
2022/05/13 08:10:52;;;;;;;5.13;0.50;;;21.70;67.20;;;;;;5000969;28;20392;-49
2022/05/13 08:13:18;;;;;;;3.88;0.47;;;21.20;67.10;;;;;;5000605;28;20281;-49
2022/05/13 08:15:45;;;;;;;5.75;0.45;;;20.80;67.40;;;;;;4999278;28;20046;-49
2022/05/13 08:18:10;;;;;;;3.00;0.47;;;21.10;66.50;;;;;;5000076;28;20119;-50
2022/05/13 08:20:36;;;;;;;2.95;0.35;;;22.00;66.20;;;;;;5000418;28;20489;-50
2022/05/13 08:23:02;;;;;;;7.85;1.13;;;22.40;64.80;;;;;;5001503;28;20076;-50
2022/05/13 08:25:28;;;;;;;6.00;0.40;;;22.00;63.80;;;;;;5000520;28;20394;-51
2022/05/13 08:27:54;;;;;;;4.65;0.60;;;21.40;63.80;;;;;;4999020;28;20125;-49
2022/05/13 08:30:20;;;;;;;3.78;0.40;;;21.40;64.30;;;;;;5000494;28;20141;-53
2022/05/13 08:32:46;;;;;;;5.30;0.30;;;21.00;64.40;;;;;;5000123;28;20054;-49
2022/05/13 08:35:14;;;;;;;4.15;0.40;;;20.40;64.60;;;;;;5001613;28;20053;-48
2022/05/13 08:37:42;;;;;;;6.25;0.40;;;19.60;65.90;;;;;;5000971;28;20034;-49
2022/05/13 08:40:36;;;;;;;6.22;0.45;;;19.00;67.30;;;;;;4999135;28;20068;-49
2022/05/13 08:43:11;;;;;;;10.77;0.70;;;18.60;69.10;;;;;;4997210;28;20050;-50
2022/05/13 08:45:40;;;;;;;4.90;0.60;;;18.70;69.80;;;;;;5001190;28;20124;-51
2022/05/13 08:48:09;;;;;;;6.38;0.68;;;18.60;69.80;;;;;;5001054;28;20442;-51
2022/05/13 08:50:40;;;;;;;6.47;0.90;;;18.30;69.70;;;;;;4999904;28;20046;-48
2022/05/13 08:53:11;;;;;;;2.33;0.40;;;17.90;70.10;;;;;;4998941;28;20548;-49
2022/05/13 08:55:47;;;;;;;3.75;0.40;;;17.60;71.50;;;;;;4999027;28;20045;-49
2022/05/13 08:58:23;;;;;;;3.28;0.40;;;17.40;72.30;;;;;;5000615;28;20487;-52
2022/05/13 09:00:51;;;;;;;4.18;0.40;;;17.40;73.20;;;;;;4997959;28;20065;-48
2022/05/13 09:03:47;;;;;;;6.85;0.50;;;17.40;73.50;;;;;;5001148;28;20042;-52
2022/05/13 09:06:50;;;;;;;3.70;0.60;;;17.60;73.70;;;;;;5000719;28;20129;-50
2022/05/13 09:09:16;;;;;;;4.13;0.65;;;17.70;73.40;;;;;;5000892;28;20038;-49
2022/05/13 09:12:19;;;;;;;7.32;0.70;;;18.60;74.30;;;;;;4999889;28;20052;-48
2022/05/13 09:14:47;;;;;;;;;;;19.50;72.40;;;;;;5001173;28;20348;-49
2022/05/13 09:17:35;;;;;;;4.75;0.68;;;19.70;70.60;;;;;;4999072;28;20277;-49
2022/05/13 09:20:13;;;;;;;4.80;0.93;;;19.50;68.80;;;;;;5000498;28;20044;-49
2022/05/13 09:22:45;;;;;;;5.40;0.60;;;19.20;68.20;;;;;;5001592;28;20030;-49
2022/05/13 09:25:24;;;;;;;5.40;0.40;;;19.00;68.80;;;;;;5009846;28;20123;-50
2022/05/13 09:28:01;;;;;;;6.95;0.70;;;19.60;70.20;;;;;;5009953;28;20038;-51
2022/05/13 09:30:36;;;;;;;4.25;0.40;;;20.80;69.00;;;;;;5008341;28;20557;-49
2022/05/13 09:33:32;;;;;;;4.40;0.60;;;21.10;66.20;;;;;;5009567;28;20122;-49
2022/05/13 09:36:06;;;;;;;1.85;0.40;;;21.00;65.60;;;;;;5009296;28;20046;-52
2022/05/13 09:38:45;;;;;;;2.03;0.22;;;21.20;66.40;;;;;;5020344;28;20049;-51
2022/05/13 09:41:14;;;;;;;3.17;0.20;;;22.80;65.40;;;;;;4991519;28;20391;-50
2022/05/13 09:43:52;;;;;;;4.18;0.30;;;23.60;62.70;;;;;;4989716;28;20470;-49
2022/05/13 09:46:23;;;;;;;4.60;0.20;;;23.30;60.70;;;;;;4989701;28;20413;-49
2022/05/13 09:49:10;;;;;;;5.78;0.40;;;22.30;59.30;;;;;;4990025;28;20050;-50
2022/05/13 09:51:39;;;;;;;2.75;0.20;;;21.50;62.40;;;;;;4989934;28;20080;-49
2022/05/13 09:54:15;;;;;;;3.15;0.28;;;21.00;61.80;;;;;;4989757;28;20061;-48
2022/05/13 09:56:52;;;;;;;44.08;1.73;;;20.40;62.40;;;;;;4989663;28;20502;-48
2022/05/13 09:59:24;;;;;;;10.70;0.57;;;20.10;63.60;;;;;;4989466;28;20042;-50
2022/05/13 10:01:51;;;;;;;17.17;1.00;;;19.70;64.50;;;;;;4989588;28;20038;-49
2022/05/13 10:04:26;;;;;;;3.97;0.22;;;19.10;65.50;;;;;;4989402;28;20046;-49
2022/05/13 10:07:08;;;;;;;2.75;0.60;;;18.70;66.60;;;;;;5001962;28;20050;-49
2022/05/13 10:15:36;;;;;;;11.18;0.75;;;18.40;68.40;;;;;;5009129;28;20125;-49
2022/05/13 10:18:24;;;;;;;6.18;0.77;;;18.20;68.50;;;;;;5009701;28;20407;-49
2022/05/13 10:20:54;;;;;;;3.40;0.30;;;17.80;68.60;;;;;;5013351;28;20096;-52
2022/05/13 10:23:29;;;;;;;6.00;0.70;;;17.70;69.50;;;;;;5013064;28;20049;-50
2022/05/13 10:26:10;;;;;;;8.00;0.52;;;18.10;70.20;;;;;;5013343;28;20131;-49
2022/05/13 10:28:41;;;;;;;3.63;0.30;;;19.10;69.30;;;;;;5012563;28;20045;-49
2022/05/13 10:31:19;;;;;;;3.88;1.05;;;19.90;67.00;;;;;;5012759;28;20081;-49
2022/05/13 10:33:57;;;;;;;3.78;0.47;;;19.80;64.90;;;;;;5012863;28;20501;-50
2022/05/13 10:36:35;;;;;;;9.20;1.00;;;19.20;65.70;;;;;;5012689;28;20486;-52
2022/05/13 10:39:13;;;;;;;8.45;0.63;;;19.20;66.30;;;;;;5030623;28;20049;-49
2022/05/13 10:41:50;;;;;;;6.43;0.30;;;19.30;66.70;;;;;;5032570;28;20389;-50
2022/05/13 10:44:36;;;;;;;8.77;0.63;;;19.90;66.80;;;;;;5031178;28;20049;-49
2022/05/13 10:47:09;;;;;;;8.15;0.30;;;20.00;66.10;;;;;;5032937;28;20049;-52
2022/05/13 10:49:40;;;;;;;3.55;0.68;;;19.60;66.10;;;;;;5032634;28;20056;-49
2022/05/13 10:52:32;;;;;;;4.63;0.70;;;19.30;66.50;;;;;;5032621;28;20049;-49
2022/05/13 10:55:14;;;;;;;6.07;0.50;;;19.30;67.30;;;;;;5032399;28;20091;-48
2022/05/13 10:57:54;;;;;;;6.03;0.50;;;19.40;68.20;;;;;;5032126;28;20050;-51
2022/05/13 11:00:57;;;;;;;6.32;0.40;;;19.20;67.70;;;;;;5032095;28;20057;-48
2022/05/13 11:03:45;;;;;;;4.88;0.40;;;19.10;67.60;;;;;;5009552;28;20873;-47
2022/05/13 11:06:10;;;;;;;3.17;0.32;;;19.00;67.80;;;;;;5026212;28;20054;-48
2022/05/13 11:08:59;;;;;;;4.15;0.52;;;19.70;68.40;;;;;;5011814;28;20516;-48
2022/05/13 11:11:31;;;;;;;6.95;0.63;;;19.60;68.90;;;;;;5016273;28;20049;-48
2022/05/13 11:14:45;;;;;;;90.25;5.07;;;19.80;68.30;;;;;;5030391;28;20140;-50
2022/05/13 11:17:27;;;;;;;7.75;0.50;;;20.00;67.80;;;;;;5031699;28;20180;-48
2022/05/13 11:20:06;;;;;;;7.50;0.53;;;19.80;66.80;;;;;;5030512;28;20489;-48
2022/05/13 11:22:36;;;;;;;4.63;0.65;;;19.40;66.80;;;;;;5031968;28;20119;-49
2022/05/13 11:28:35;;;;;;;3.83;0.30;;;19.10;67.90;;;;;;5032123;28;20179;-51
2022/05/13 11:31:16;;;;;;;7.85;0.52;;;19.10;67.20;;;;;;5031747;28;20045;-49
2022/05/13 11:33:57;;;;;;;4.22;0.50;;;19.00;67.00;;;;;;5030648;28;20049;-52
2022/05/13 11:36:54;;;;;;;5.65;0.30;;;18.90;66.80;;;;;;5031564;28;20513;-52
2022/05/13 11:39:31;;;;;;;2.83;0.22;;;18.90;67.00;;;;;;4992655;28;20509;-48
2022/05/13 11:42:18;;;;;;;6.38;0.57;;;18.80;67.70;;;;;;4992579;28;20058;-51
2022/05/13 11:45:13;;;;;;;4.47;0.65;;;18.70;67.70;;;;;;4992578;28;20402;-48
2022/05/13 11:48:31;;;;;;;26.88;1.85;;;18.40;68.00;;;;;;4992542;28;20121;-48
2022/05/13 11:51:17;;;;;;;19.45;1.08;;;18.30;68.90;;;;;;4975838;28;20054;-50
2022/05/13 11:53:44;;;;;;;6.32;1.45;;;18.30;68.40;;;;;;4992509;28;20100;-50
2022/05/13 11:56:16;;;;;;;12.70;1.23;;;18.30;68.10;;;;;;4992477;28;20552;-49
2022/05/13 11:58:47;;;;;;;18.17;2.00;;;18.40;67.90;;;;;;4992272;28;20082;-48
2022/05/13 12:01:14;;;;;;;5.57;0.30;;;18.40;68.10;;;;;;4992447;28;20097;-50
2022/05/13 12:03:39;;;;;;;6.75;0.85;;;18.60;67.80;;;;;;4992359;28;20121;-50
2022/05/13 12:06:11;;;;;;;7.82;1.00;;;18.70;67.50;;;;;;4992078;28;20125;-50
2022/05/13 12:08:36;;;;;;;5.27;0.67;;;18.90;67.00;;;;;;5028825;28;20388;-49
2022/05/13 12:11:02;;;;;;;159.52;13.15;;;19.30;67.50;;;;;;5031421;28;20041;-49
2022/05/13 12:13:58;;;;;;;16.40;0.85;;;19.60;66.80;;;;;;5031016;28;20041;-52
2022/05/13 12:16:45;;;;;;;20.08;1.00;;;19.70;65.00;;;;;;5031084;28;20068;-49
2022/05/13 12:19:20;;;;;;;10.85;0.90;;;19.40;64.90;;;;;;5021928;28;20048;-49
2022/05/13 12:22:05;;;;;;;7.63;0.40;;;19.30;65.20;;;;;;4993218;28;20061;-52
2022/05/13 12:25:01;;;;;;;5.63;0.52;;;19.50;65.70;;;;;;4997275;28;20398;-53
2022/05/13 12:27:39;;;;;;;3.97;0.30;;;19.80;65.10;;;;;;5014982;28;20053;-48
2022/05/13 12:30:35;;;;;;;6.75;0.60;;;19.80;64.10;;;;;;4999623;28;20042;-54
2022/05/13 12:33:23;;;;;;;8.10;0.63;;;19.60;64.60;;;;;;4999996;28;20038;-57
2022/05/13 12:39:06;;;;;;;12.88;1.08;;;19.30;65.70;;;;;;4999264;28;20054;-57
2022/05/13 12:41:51;;;;;;;5.93;0.60;;;19.60;66.30;;;;;;4997359;28;20501;-55
2022/05/13 12:44:26;;;;;;;6.78;0.65;;;19.30;66.30;;;;;;4999756;28;20044;-56
2022/05/13 12:47:16;;;;;;;4.13;0.70;;;19.40;66.40;;;;;;4999273;28;20445;-57
2022/05/13 12:50:15;;;;;;;6.60;0.50;;;19.60;65.50;;;;;;4999451;28;20048;-55
2022/05/13 12:52:42;;;;;;;17.45;1.25;;;19.60;66.70;;;;;;4999069;28;20030;-53
2022/05/13 12:55:24;;;;;;;10.32;0.65;;;19.70;66.30;;;;;;4997980;28;20073;-54
2022/05/13 12:58:05;;;;;;;2.75;0.50;;;19.70;65.20;;;;;;5000413;28;20045;-52
2022/05/13 13:00:33;;;;;;;5.30;0.55;;;19.60;64.90;;;;;;4999548;28;20046;-52
2022/05/13 13:03:03;;;;;;;3.88;0.43;;;19.40;64.70;;;;;;4998853;28;20466;-53
2022/05/13 13:05:34;;;;;;;4.13;0.63;;;19.40;64.90;;;;;;4997878;28;20634;-54
2022/05/13 13:08:17;;;;;;;8.20;0.65;;;19.30;65.00;;;;;;4998936;28;20053;-52
2022/05/13 13:10:50;;;;;;;8.35;0.65;;;19.30;64.60;;;;;;4999796;28;20066;-52
2022/05/13 13:13:28;;;;;;;3.80;0.35;;;19.30;64.40;;;;;;5000481;28;20030;-49
2022/05/13 13:15:59;;;;;;;9.60;0.57;;;19.30;64.20;;;;;;5000408;28;20041;-51
2022/05/13 13:18:33;;;;;;;3.08;0.32;;;19.20;64.60;;;;;;5000949;28;20057;-50
2022/05/13 13:21:03;;;;;;;6.50;0.75;;;19.40;64.40;;;;;;4999510;28;20042;-49
2022/05/13 13:23:33;;;;;;;10.02;0.75;;;19.40;63.90;;;;;;4999013;28;20764;-51
2022/05/13 13:26:02;;;;;;;3.38;0.50;;;19.20;63.50;;;;;;4999487;28;20042;-50
2022/05/13 13:28:29;;;;;;;4.85;0.40;;;19.00;63.80;;;;;;4998424;28;20121;-49
2022/05/13 13:31:03;;;;;;;6.65;0.40;;;18.70;64.40;;;;;;4999691;28;20038;-50
2022/05/13 13:33:32;;;;;;;7.43;0.70;;;18.70;65.20;;;;;;4998918;28;20030;-54
2022/05/13 13:36:29;;;;;;;6.00;0.52;;;18.80;66.00;;;;;;4997389;28;20047;-48